Time;durP1;ratioP1;P1;durP2;ratioP2;P2;SDS_P1;SDS_P2;PMS_P1;PMS_P2;Temp;Humidity;BMP_temperature;BMP_pressure;BME280_temperature;BME280_humidity;BME280_pressure;Samples;Min_cycle;Max_cycle;Signal;HPM_P1;HPM_P2
2023/05/13 00:02:08;;;;;;;14.10;12.30;;;;;;;;;;4958323;29;20444;-73
2023/05/13 00:04:35;;;;;;;15.27;13.73;;;;;;;;;;4958256;29;20405;-73
2023/05/13 00:07:01;;;;;;;15.05;13.40;;;;;;;;;;4961073;28;20916;-74
2023/05/13 00:09:27;;;;;;;14.10;12.07;;;;;;;;;;4961936;29;20316;-74
2023/05/13 00:11:53;;;;;;;14.85;12.60;;;;;;;;;;4961143;29;20447;-74
2023/05/13 00:14:19;;;;;;;16.25;12.65;;;;;;;;;;4961920;29;20183;-74
2023/05/13 00:16:45;;;;;;;15.07;12.80;;;;;;;;;;4961017;29;20724;-74
2023/05/13 00:19:11;;;;;;;14.23;12.80;;;;;;;;;;4961041;29;20416;-74
2023/05/13 00:21:37;;;;;;;14.50;13.00;;;;;;;;;;4961019;29;20551;-74
2023/05/13 00:24:03;;;;;;;15.37;12.53;;;;;;;;;;4961408;29;20412;-74
2023/05/13 00:26:29;;;;;;;14.70;12.85;;;;;;;;;;4961582;29;20440;-74
2023/05/13 00:28:55;;;;;;;15.43;13.77;;;;;;;;;;4960498;29;20181;-74
2023/05/13 00:31:21;;;;;;;17.30;14.27;;;;;;;;;;4961064;29;20504;-74
2023/05/13 00:33:47;;;;;;;16.00;14.23;;;;;;;;;;4961119;29;20422;-74
2023/05/13 00:36:13;;;;;;;15.73;14.33;;;;;;;;;;4961239;29;20205;-74
2023/05/13 00:38:39;;;;;;;15.45;12.50;;;;;;;;;;4961065;29;20416;-74
2023/05/13 00:41:05;;;;;;;16.43;14.70;;;;;;;;;;4961401;29;20181;-74
2023/05/13 00:43:31;;;;;;;14.45;12.95;;;;;;;;;;4961392;29;20401;-73
2023/05/13 00:45:58;;;;;;;15.90;12.87;;;;;;;;;;4961108;29;20612;-74
2023/05/13 00:48:24;;;;;;;17.10;13.18;;;;;;;;;;4960839;29;20419;-73
2023/05/13 00:50:50;;;;;;;19.80;14.05;;;;;;;;;;4960492;29;20608;-74
2023/05/13 00:53:16;;;;;;;20.20;15.98;;;;;;;;;;4960572;29;20235;-73
2023/05/13 00:55:43;;;;;;;15.55;13.95;;;;;;;;;;4960897;29;20215;-73
2023/05/13 00:58:10;;;;;;;15.57;13.57;;;;;;;;;;4960781;29;20260;-73
2023/05/13 01:00:52;;;;;;;14.70;13.20;;;;;;;;;;4961030;29;20256;-73
2023/05/13 01:03:32;;;;;;;18.35;13.15;;;;;;;;;;4960959;29;20252;-73
2023/05/13 01:06:05;;;;;;;14.77;13.32;;;;;;;;;;4960886;29;20228;-74
2023/05/13 01:08:47;;;;;;;14.13;12.73;;;;;;;;;;4961561;29;20177;-73
2023/05/13 01:11:34;;;;;;;14.32;12.93;;;;;;;;;;4960944;29;20173;-74
2023/05/13 01:14:06;;;;;;;15.07;13.57;;;;;;;;;;4960447;29;20184;-74
2023/05/13 01:16:36;;;;;;;16.48;14.57;;;;;;;;;;4960478;28;20536;-73
2023/05/13 01:19:06;;;;;;;16.67;13.85;;;;;;;;;;4960165;29;20181;-74
2023/05/13 01:21:35;;;;;;;17.75;13.25;;;;;;;;;;4959626;29;20204;-73
2023/05/13 01:24:01;;;;;;;18.90;13.68;;;;;;;;;;4960519;29;20177;-73
2023/05/13 01:26:28;;;;;;;15.40;13.47;;;;;;;;;;4960593;29;20193;-73
2023/05/13 01:28:54;;;;;;;16.52;14.10;;;;;;;;;;4960540;29;20420;-73
2023/05/13 01:31:20;;;;;;;13.57;12.18;;;;;;;;;;4960902;29;20232;-73
2023/05/13 01:33:47;;;;;;;13.95;12.55;;;;;;;;;;4960380;29;20193;-74
2023/05/13 01:36:13;;;;;;;14.07;12.23;;;;;;;;;;4959886;29;20205;-73
2023/05/13 01:38:40;;;;;;;16.15;14.70;;;;;;;;;;4960048;29;20181;-73
2023/05/13 01:41:06;;;;;;;19.00;13.63;;;;;;;;;;4960673;29;20614;-73
2023/05/13 01:43:32;;;;;;;18.45;13.55;;;;;;;;;;4960510;29;20185;-73
2023/05/13 01:45:59;;;;;;;17.23;15.05;;;;;;;;;;4960501;29;20195;-74
2023/05/13 01:48:25;;;;;;;16.05;13.77;;;;;;;;;;4960643;29;20191;-73
2023/05/13 01:50:51;;;;;;;16.08;14.15;;;;;;;;;;4960072;29;20319;-74
2023/05/13 01:53:18;;;;;;;15.93;13.25;;;;;;;;;;4960379;29;20228;-74
2023/05/13 01:55:44;;;;;;;15.38;13.95;;;;;;;;;;4959959;29;20212;-74
2023/05/13 01:58:10;;;;;;;18.40;15.97;;;;;;;;;;4960026;29;20181;-74
2023/05/13 02:00:36;;;;;;;19.87;16.90;;;;;;;;;;4959803;29;20405;-74
2023/05/13 02:03:02;;;;;;;17.40;15.70;;;;;;;;;;4960162;29;20755;-74
2023/05/13 02:05:30;;;;;;;25.15;15.43;;;;;;;;;;4960218;29;20413;-74
2023/05/13 02:07:56;;;;;;;17.52;15.20;;;;;;;;;;4959639;29;20584;-74
2023/05/13 02:10:22;;;;;;;15.73;14.13;;;;;;;;;;4959555;29;20197;-74
2023/05/13 02:12:48;;;;;;;16.27;14.17;;;;;;;;;;4959360;29;20876;-79
2023/05/13 02:15:14;;;;;;;14.43;12.83;;;;;;;;;;4959153;29;20460;-74
2023/05/13 02:17:40;;;;;;;17.13;12.57;;;;;;;;;;4959707;29;20420;-74
2023/05/13 02:20:06;;;;;;;15.07;13.47;;;;;;;;;;4959370;29;20429;-74
2023/05/13 02:22:32;;;;;;;16.50;13.30;;;;;;;;;;4959332;29;20408;-74
2023/05/13 02:24:58;;;;;;;15.17;13.30;;;;;;;;;;4959177;29;20620;-74
2023/05/13 02:27:24;;;;;;;20.43;15.90;;;;;;;;;;4959612;29;20420;-74
2023/05/13 02:29:50;;;;;;;18.10;16.27;;;;;;;;;;4958017;28;20480;-75
2023/05/13 02:32:16;;;;;;;20.15;16.65;;;;;;;;;;4959774;29;20479;-74
2023/05/13 02:34:42;;;;;;;20.80;16.13;;;;;;;;;;4959539;29;20548;-74
2023/05/13 02:37:08;;;;;;;18.80;15.50;;;;;;;;;;4959381;29;20488;-74
2023/05/13 02:39:34;;;;;;;19.27;16.13;;;;;;;;;;4959684;29;20471;-74
2023/05/13 02:42:01;;;;;;;19.75;17.48;;;;;;;;;;4959538;29;20173;-73
2023/05/13 02:44:27;;;;;;;18.05;16.15;;;;;;;;;;4959748;29;20177;-74
2023/05/13 02:46:53;;;;;;;20.90;16.67;;;;;;;;;;4959391;29;20191;-74
2023/05/13 02:49:19;;;;;;;25.53;18.77;;;;;;;;;;4959536;29;20417;-74
2023/05/13 02:51:45;;;;;;;20.80;17.97;;;;;;;;;;4959278;29;20464;-74
2023/05/13 02:54:11;;;;;;;25.90;18.87;;;;;;;;;;4959012;29;20416;-73
2023/05/13 02:56:37;;;;;;;22.83;18.38;;;;;;;;;;4959443;29;20471;-73
2023/05/13 02:59:03;;;;;;;29.37;19.87;;;;;;;;;;4958734;29;20180;-74
2023/05/13 03:01:29;;;;;;;24.37;20.73;;;;;;;;;;4958987;29;20463;-73
2023/05/13 03:03:55;;;;;;;30.42;22.63;;;;;;;;;;4959361;29;20524;-74
2023/05/13 03:06:21;;;;;;;37.37;22.50;;;;;;;;;;4959311;29;20177;-73
2023/05/13 03:08:47;;;;;;;27.63;23.60;;;;;;;;;;4959103;29;21009;-73
2023/05/13 03:11:13;;;;;;;31.95;22.77;;;;;;;;;;4959169;29;20452;-73
2023/05/13 03:13:39;;;;;;;34.93;23.57;;;;;;;;;;4959478;29;20629;-74
2023/05/13 03:16:05;;;;;;;29.77;25.23;;;;;;;;;;4959002;29;20464;-74
2023/05/13 03:18:31;;;;;;;30.73;23.20;;;;;;;;;;4959338;29;20244;-74
2023/05/13 03:20:57;;;;;;;33.00;26.20;;;;;;;;;;4959160;29;20189;-73
2023/05/13 03:23:23;;;;;;;33.40;23.98;;;;;;;;;;4958759;29;20185;-73
2023/05/13 03:25:49;;;;;;;33.95;23.88;;;;;;;;;;4959016;29;20185;-73
2023/05/13 03:28:15;;;;;;;28.92;22.90;;;;;;;;;;4958936;29;20183;-73
2023/05/13 03:30:42;;;;;;;30.83;24.30;;;;;;;;;;4959011;29;20185;-73
2023/05/13 03:33:08;;;;;;;28.30;23.30;;;;;;;;;;4958701;29;20421;-74
2023/05/13 03:35:34;;;;;;;28.40;22.90;;;;;;;;;;4958690;29;20195;-75
2023/05/13 03:38:00;;;;;;;31.40;24.75;;;;;;;;;;4958665;29;20827;-74
2023/05/13 03:40:26;;;;;;;36.42;25.73;;;;;;;;;;4960333;28;20189;-74
2023/05/13 03:42:52;;;;;;;33.80;27.13;;;;;;;;;;4962665;29;20189;-74
2023/05/13 03:45:18;;;;;;;33.73;27.27;;;;;;;;;;4962752;29;20428;-74
2023/05/13 03:47:44;;;;;;;32.87;25.77;;;;;;;;;;4962614;29;20417;-74
2023/05/13 03:50:10;;;;;;;33.07;23.47;;;;;;;;;;4962032;29;20468;-74
2023/05/13 03:52:36;;;;;;;28.90;23.52;;;;;;;;;;4962346;29;20427;-74
2023/05/13 03:55:02;;;;;;;27.80;23.90;;;;;;;;;;4962070;29;20185;-74
2023/05/13 03:57:28;;;;;;;40.53;24.57;;;;;;;;;;4960923;29;20460;-74
2023/05/13 03:59:54;;;;;;;30.80;23.37;;;;;;;;;;4961759;29;20495;-78
2023/05/13 04:02:21;;;;;;;33.80;22.70;;;;;;;;;;4962806;29;20416;-74
2023/05/13 04:04:47;;;;;;;24.75;20.40;;;;;;;;;;4962476;29;20443;-74
2023/05/13 04:07:13;;;;;;;29.40;21.50;;;;;;;;;;4962826;29;20296;-74
2023/05/13 04:09:39;;;;;;;25.20;21.80;;;;;;;;;;4963050;29;20408;-74
2023/05/13 04:12:05;;;;;;;29.10;22.25;;;;;;;;;;4962554;29;20789;-74
2023/05/13 04:14:31;;;;;;;27.52;21.73;;;;;;;;;;4962953;29;20181;-74
2023/05/13 04:16:57;;;;;;;35.70;25.20;;;;;;;;;;4962509;29;20246;-74
2023/05/13 04:19:23;;;;;;;29.20;23.80;;;;;;;;;;4962592;29;20487;-74
2023/05/13 04:21:49;;;;;;;30.98;24.75;;;;;;;;;;4961803;29;20424;-74
2023/05/13 04:24:15;;;;;;;32.45;24.75;;;;;;;;;;4962368;29;20196;-74
2023/05/13 04:26:41;;;;;;;36.23;26.67;;;;;;;;;;4961945;29;20185;-74
2023/05/13 04:29:07;;;;;;;33.05;26.35;;;;;;;;;;4961981;29;20405;-75
2023/05/13 04:31:33;;;;;;;37.27;27.43;;;;;;;;;;4961702;29;20181;-74
2023/05/13 04:33:59;;;;;;;37.57;26.50;;;;;;;;;;4961954;29;20475;-74
2023/05/13 04:36:25;;;;;;;45.85;28.15;;;;;;;;;;4961457;29;20472;-74
2023/05/13 04:38:51;;;;;;;34.65;26.23;;;;;;;;;;4961867;29;20185;-74
2023/05/13 04:41:17;;;;;;;40.57;29.57;;;;;;;;;;4962428;29;20519;-74
2023/05/13 04:43:43;;;;;;;42.60;28.77;;;;;;;;;;4962050;29;20439;-74
2023/05/13 04:46:09;;;;;;;45.83;30.90;;;;;;;;;;4961378;29;20519;-74
2023/05/13 04:48:35;;;;;;;49.57;30.30;;;;;;;;;;4961759;29;20405;-74
2023/05/13 04:51:01;;;;;;;34.20;29.27;;;;;;;;;;4961438;29;20803;-75
2023/05/13 04:53:27;;;;;;;43.17;29.90;;;;;;;;;;4960995;28;20471;-74
2023/05/13 04:55:59;;;;;;;39.83;28.27;;;;;;;;;;4961690;29;20470;-74
2023/05/13 04:58:25;;;;;;;41.92;30.33;;;;;;;;;;4961136;29;20425;-74
2023/05/13 05:00:51;;;;;;;40.25;30.52;;;;;;;;;;4961455;29;20590;-74
2023/05/13 05:03:17;;;;;;;42.57;29.90;;;;;;;;;;4961284;29;20239;-74
2023/05/13 05:05:43;;;;;;;48.80;35.07;;;;;;;;;;4961305;29;20907;-74
2023/05/13 05:08:09;;;;;;;44.33;32.57;;;;;;;;;;4960954;29;20800;-75
2023/05/13 05:10:35;;;;;;;47.47;31.63;;;;;;;;;;4960974;29;20477;-74
2023/05/13 05:13:01;;;;;;;46.03;31.98;;;;;;;;;;4960537;29;20193;-75
2023/05/13 05:15:28;;;;;;;47.30;34.67;;;;;;;;;;4960961;29;20185;-74
2023/05/13 05:17:55;;;;;;;50.47;39.33;;;;;;;;;;4961095;29;20440;-74
2023/05/13 05:20:23;;;;;;;50.83;35.13;;;;;;;;;;4960812;29;20180;-74
2023/05/13 05:22:49;;;;;;;53.03;37.97;;;;;;;;;;4961078;29;20633;-74
2023/05/13 05:25:15;;;;;;;54.38;39.83;;;;;;;;;;4960951;29;20177;-74
2023/05/13 05:27:41;;;;;;;51.45;40.42;;;;;;;;;;4960908;29;20645;-74
2023/05/13 05:30:08;;;;;;;64.37;43.00;;;;;;;;;;4960956;29;20181;-75
2023/05/13 05:32:34;;;;;;;55.90;40.40;;;;;;;;;;4960575;29;20588;-74
2023/05/13 05:35:02;;;;;;;56.83;43.17;;;;;;;;;;4960585;29;20284;-75
2023/05/13 05:37:29;;;;;;;63.45;43.38;;;;;;;;;;4959977;29;20220;-74
2023/05/13 05:39:55;;;;;;;66.45;44.25;;;;;;;;;;4960235;29;20571;-74
2023/05/13 05:42:21;;;;;;;60.00;46.10;;;;;;;;;;4960157;29;20192;-74
2023/05/13 05:44:47;;;;;;;70.27;47.13;;;;;;;;;;4960521;29;20864;-75
2023/05/13 05:47:13;;;;;;;67.00;44.97;;;;;;;;;;4959191;29;20416;-74
2023/05/13 05:49:39;;;;;;;60.80;45.60;;;;;;;;;;4960496;29;20204;-74
2023/05/13 05:52:05;;;;;;;68.03;46.28;;;;;;;;;;4959937;29;20237;-74
2023/05/13 05:54:31;;;;;;;66.25;46.22;;;;;;;;;;4960791;29;20316;-74
2023/05/13 05:56:57;;;;;;;64.45;46.40;;;;;;;;;;4960400;29;20211;-74
2023/05/13 05:59:23;;;;;;;60.00;45.83;;;;;;;;;;4959907;29;20184;-75
2023/05/13 06:01:49;;;;;;;65.27;47.30;;;;;;;;;;4960344;29;20776;-74
2023/05/13 06:04:16;;;;;;;63.70;44.05;;;;;;;;;;4959820;28;20404;-74
2023/05/13 06:06:42;;;;;;;61.10;44.87;;;;;;;;;;4960313;29;20193;-74
2023/05/13 06:09:08;;;;;;;57.60;44.53;;;;;;;;;;4959561;29;20417;-75
2023/05/13 06:11:33;;;;;;;57.47;43.73;;;;;;;;;;4960156;29;20480;-77
2023/05/13 06:13:59;;;;;;;52.60;41.50;;;;;;;;;;4959052;29;20409;-78
2023/05/13 06:16:25;;;;;;;54.50;42.80;;;;;;;;;;4959295;29;20823;-77
2023/05/13 06:18:51;;;;;;;54.03;40.90;;;;;;;;;;4959751;29;20181;-77
2023/05/13 06:21:17;;;;;;;53.70;41.47;;;;;;;;;;4959002;29;20413;-77
2023/05/13 06:23:43;;;;;;;45.50;38.10;;;;;;;;;;4959446;29;20723;-78
2023/05/13 06:26:09;;;;;;;50.67;38.50;;;;;;;;;;4959426;29;20408;-77
2023/05/13 06:28:35;;;;;;;49.47;39.03;;;;;;;;;;4958933;29;20415;-77
2023/05/13 06:31:01;;;;;;;41.57;37.07;;;;;;;;;;4959213;29;20411;-78
2023/05/13 06:33:27;;;;;;;47.37;37.30;;;;;;;;;;4959147;29;20458;-77
2023/05/13 06:35:53;;;;;;;45.17;35.93;;;;;;;;;;4959352;29;20515;-77
2023/05/13 06:38:19;;;;;;;41.63;35.97;;;;;;;;;;4958971;29;20388;-77
2023/05/13 06:40:45;;;;;;;38.30;33.53;;;;;;;;;;4958368;29;20413;-79
2023/05/13 06:43:13;;;;;;;38.90;34.17;;;;;;;;;;4958426;29;20401;-75
2023/05/13 06:45:39;;;;;;;41.97;32.83;;;;;;;;;;4959485;29;20511;-74
2023/05/13 06:48:05;;;;;;;35.07;31.37;;;;;;;;;;4958959;29;20417;-75
2023/05/13 06:50:31;;;;;;;35.80;30.23;;;;;;;;;;4959229;29;20475;-74
2023/05/13 06:52:57;;;;;;;31.37;28.10;;;;;;;;;;4959340;29;20758;-74
2023/05/13 06:55:23;;;;;;;31.80;27.97;;;;;;;;;;4958991;29;20757;-74
2023/05/13 06:57:49;;;;;;;31.13;26.73;;;;;;;;;;4958626;29;20480;-74
2023/05/13 07:00:16;;;;;;;30.10;26.50;;;;;;;;;;4958839;29;20463;-74
2023/05/13 07:02:42;;;;;;;28.70;25.63;;;;;;;;;;4958981;29;20421;-74
2023/05/13 07:05:08;;;;;;;27.60;25.13;;;;;;;;;;4959139;29;20513;-75
2023/05/13 07:07:34;;;;;;;27.43;23.93;;;;;;;;;;4958757;29;20823;-74
2023/05/13 07:10:00;;;;;;;29.37;23.50;;;;;;;;;;4959105;29;20379;-74
2023/05/13 07:12:26;;;;;;;23.83;21.43;;;;;;;;;;4959010;29;20475;-75
2023/05/13 07:14:52;;;;;;;24.80;21.03;;;;;;;;;;4959202;28;20828;-74
2023/05/13 07:17:18;;;;;;;20.47;18.53;;;;;;;;;;4962893;29;20507;-74
2023/05/13 07:19:44;;;;;;;25.10;19.40;;;;;;;;;;4963223;29;20432;-75
2023/05/13 07:22:10;;;;;;;20.53;17.90;;;;;;;;;;4962641;29;20762;-75
2023/05/13 07:24:36;;;;;;;20.47;18.30;;;;;;;;;;4962671;29;20448;-75
2023/05/13 07:27:02;;;;;;;19.13;17.23;;;;;;;;;;4962773;29;20888;-75
2023/05/13 07:29:29;;;;;;;19.30;16.80;;;;;;;;;;4962338;29;20576;-74
2023/05/13 07:31:55;;;;;;;20.43;16.80;;;;;;;;;;4961944;29;20408;-75
2023/05/13 07:34:21;;;;;;;21.10;17.10;;;;;;;;;;4962275;29;20420;-75
2023/05/13 07:36:47;;;;;;;21.00;16.70;;;;;;;;;;4962048;29;20455;-75
2023/05/13 07:39:13;;;;;;;19.97;15.83;;;;;;;;;;4961806;29;20440;-75
2023/05/13 07:41:39;;;;;;;16.13;14.23;;;;;;;;;;4961976;29;20384;-75
2023/05/13 07:44:10;;;;;;;17.73;14.67;;;;;;;;;;4962244;29;20479;-75
2023/05/13 07:46:36;;;;;;;18.13;14.63;;;;;;;;;;4962719;29;20400;-75
2023/05/13 07:49:05;;;;;;;16.23;12.90;;;;;;;;;;4961653;29;20412;-75
2023/05/13 07:51:31;;;;;;;17.50;13.47;;;;;;;;;;4961380;29;20474;-75
2023/05/13 07:53:57;;;;;;;15.10;13.60;;;;;;;;;;4961643;29;20413;-75
2023/05/13 07:56:23;;;;;;;18.63;13.93;;;;;;;;;;4960295;29;20786;-75
2023/05/13 07:58:49;;;;;;;15.83;14.13;;;;;;;;;;4961664;29;20391;-75
2023/05/13 08:01:15;;;;;;;15.50;13.87;;;;;;;;;;4960981;29;20408;-82
2023/05/13 08:03:41;;;;;;;13.90;11.83;;;;;;;;;;4959912;28;20399;-82
2023/05/13 08:06:07;;;;;;;16.30;13.13;;;;;;;;;;4943684;29;20487;-81
2023/05/13 08:08:33;;;;;;;13.90;11.87;;;;;;;;;;4959864;29;20389;-81
2023/05/13 08:10:59;;;;;;;14.27;11.50;;;;;;;;;;4960301;29;20387;-81
2023/05/13 08:13:25;;;;;;;17.70;12.60;;;;;;;;;;4959806;29;20979;-82
2023/05/13 08:15:51;;;;;;;12.63;11.33;;;;;;;;;;4960335;29;20838;-82
2023/05/13 08:18:17;;;;;;;13.30;11.70;;;;;;;;;;4959611;29;20383;-82
2023/05/13 08:20:43;;;;;;;16.43;11.50;;;;;;;;;;4959898;29;20498;-81
2023/05/13 08:23:09;;;;;;;13.33;11.63;;;;;;;;;;4959989;29;20440;-83
2023/05/13 08:25:35;;;;;;;14.57;10.87;;;;;;;;;;4960302;29;20456;-82
2023/05/13 08:28:02;;;;;;;15.17;11.50;;;;;;;;;;4958563;28;20999;-82
2023/05/13 08:30:28;;;;;;;14.50;11.70;;;;;;;;;;4959866;29;20431;-82
2023/05/13 08:32:54;;;;;;;14.50;13.03;;;;;;;;;;4960615;29;20411;-83
2023/05/13 08:35:20;;;;;;;13.20;11.83;;;;;;;;;;4959583;29;20399;-82
2023/05/13 08:37:46;;;;;;;14.73;12.97;;;;;;;;;;4960058;29;20462;-82
2023/05/13 08:40:14;;;;;;;13.60;12.20;;;;;;;;;;4959179;29;20387;-83
2023/05/13 08:42:40;;;;;;;15.80;12.43;;;;;;;;;;4960127;29;20448;-82
2023/05/13 08:45:07;;;;;;;13.63;11.50;;;;;;;;;;4959518;29;20394;-83
2023/05/13 08:47:51;;;;;;;15.00;12.63;;;;;;;;;;4959019;29;20420;-82
2023/05/13 08:50:17;;;;;;;13.70;12.13;;;;;;;;;;4959129;29;20472;-83
2023/05/13 08:52:43;;;;;;;14.90;13.40;;;;;;;;;;4959821;29;20405;-82
2023/05/13 08:55:10;;;;;;;16.10;13.23;;;;;;;;;;4959937;29;20435;-83
2023/05/13 08:57:36;;;;;;;15.53;11.90;;;;;;;;;;4959320;29;20435;-83
2023/05/13 09:00:03;;;;;;;15.03;12.57;;;;;;;;;;4958141;29;20432;-82
2023/05/13 09:02:29;;;;;;;13.03;11.73;;;;;;;;;;4959133;29;20408;-82
2023/05/13 09:04:59;;;;;;;14.00;12.30;;;;;;;;;;4958809;29;20409;-83
2023/05/13 09:07:25;;;;;;;11.80;10.53;;;;;;;;;;4958446;29;20478;-83
2023/05/13 09:09:51;;;;;;;11.93;10.73;;;;;;;;;;4963864;29;20436;-82
2023/05/13 09:12:36;;;;;;;13.13;10.27;;;;;;;;;;4960470;29;20766;-83
2023/05/13 09:15:02;;;;;;;13.90;9.77;;;;;;;;;;4958096;29;20904;-83
2023/05/13 09:17:29;;;;;;;10.40;9.33;;;;;;;;;;4957646;29;20464;-83
2023/05/13 09:19:55;;;;;;;9.23;8.33;;;;;;;;;;4958179;29;20432;-83
2023/05/13 09:22:22;;;;;;;9.40;8.40;;;;;;;;;;4957553;29;20443;-84
2023/05/13 09:24:54;;;;;;;8.43;7.63;;;;;;;;;;4958034;29;20413;-82
2023/05/13 09:27:36;;;;;;;10.53;8.80;;;;;;;;;;4957981;29;20519;-83
2023/05/13 09:30:02;;;;;;;9.30;8.40;;;;;;;;;;4958526;29;20437;-83
2023/05/13 09:32:27;;;;;;;9.60;8.00;;;;;;;;;;4957673;29;20784;-83
2023/05/13 09:34:53;;;;;;;8.10;7.27;;;;;;;;;;4958164;29;20413;-83
2023/05/13 09:37:23;;;;;;;7.80;7.07;;;;;;;;;;4958343;29;21051;-83
2023/05/13 09:39:51;;;;;;;8.13;7.30;;;;;;;;;;4957234;28;20428;-82
2023/05/13 09:42:19;;;;;;;8.63;7.40;;;;;;;;;;4957797;29;20456;-77
2023/05/13 09:44:45;;;;;;;8.07;6.90;;;;;;;;;;4958223;29;20416;-78
2023/05/13 09:47:13;;;;;;;7.83;6.87;;;;;;;;;;4956661;29;20467;-78
2023/05/13 09:49:40;;;;;;;8.87;6.90;;;;;;;;;;4957431;29;20428;-77
2023/05/13 09:52:10;;;;;;;9.23;6.50;;;;;;;;;;4965604;29;20492;-82
2023/05/13 09:54:36;;;;;;;8.53;5.80;;;;;;;;;;4958564;29;20499;-83
2023/05/13 09:57:02;;;;;;;6.43;5.80;;;;;;;;;;4958110;29;20472;-84
2023/05/13 09:59:31;;;;;;;9.77;5.73;;;;;;;;;;4958423;29;20436;-84
2023/05/13 10:01:59;;;;;;;6.10;5.10;;;;;;;;;;4957762;29;20425;-83
2023/05/13 10:04:25;;;;;;;4.83;4.43;;;;;;;;;;4959967;29;20409;-83
2023/05/13 10:06:51;;;;;;;5.90;5.17;;;;;;;;;;4941767;29;20413;-86
2023/05/13 10:09:21;;;;;;;7.07;4.50;;;;;;;;;;4960761;29;20416;-88
2023/05/13 10:11:47;;;;;;;9.20;6.07;;;;;;;;;;4961146;29;20416;-86
2023/05/13 10:14:13;;;;;;;9.10;6.10;;;;;;;;;;4960085;29;20448;-86
2023/05/13 10:16:40;;;;;;;8.00;7.20;;;;;;;;;;4960766;29;20463;-86
2023/05/13 10:19:06;;;;;;;7.50;6.47;;;;;;;;;;4943312;29;20916;-86
2023/05/13 10:21:35;;;;;;;8.87;8.00;;;;;;;;;;4960045;29;20416;-88
2023/05/13 10:24:01;;;;;;;11.67;7.00;;;;;;;;;;4958836;29;20471;-88
2023/05/13 10:26:27;;;;;;;11.23;8.50;;;;;;;;;;4958185;29;20537;-89
2023/05/13 10:28:54;;;;;;;9.30;7.10;;;;;;;;;;4959472;29;20448;-88
2023/05/13 10:31:20;;;;;;;10.33;6.60;;;;;;;;;;4960715;29;20404;-90
2023/05/13 10:33:46;;;;;;;7.17;6.50;;;;;;;;;;4943501;29;20413;-89
2023/05/13 10:36:25;;;;;;;9.07;7.73;;;;;;;;;;4958776;29;20460;-88
2023/05/13 10:39:03;;;;;;;6.73;6.03;;;;;;;;;;4955792;29;20448;-89
2023/05/13 10:41:42;;;;;;;6.67;5.70;;;;;;;;;;4956757;29;20999;-88
2023/05/13 10:44:07;;;;;;;6.00;5.50;;;;;;;;;;4958514;29;20413;-89
2023/05/13 10:46:38;;;;;;;7.93;5.20;;;;;;;;;;4959947;29;20444;-89
2023/05/13 10:49:04;;;;;;;5.60;5.10;;;;;;;;;;4962273;28;20451;-89
2023/05/13 10:51:31;;;;;;;5.67;4.90;;;;;;;;;;4937101;29;20965;-89
2023/05/13 10:53:57;;;;;;;6.13;5.50;;;;;;;;;;4953973;29;20421;-90
2023/05/13 10:56:24;;;;;;;5.43;4.90;;;;;;;;;;4938169;29;20457;-88
2023/05/13 10:58:57;;;;;;;6.30;5.33;;;;;;;;;;4937991;29;20534;-88
2023/05/13 11:01:28;;;;;;;9.37;4.23;;;;;;;;;;4938339;29;20414;-88
2023/05/13 11:03:55;;;;;;;5.67;5.10;;;;;;;;;;4953559;29;20517;-89
2023/05/13 11:06:22;;;;;;;5.97;5.00;;;;;;;;;;4951556;29;20413;-89
2023/05/13 11:08:52;;;;;;;7.40;5.47;;;;;;;;;;4936918;29;20432;-89
2023/05/13 11:11:18;;;;;;;6.13;4.67;;;;;;;;;;4936734;29;20500;-89
2023/05/13 11:13:44;;;;;;;6.10;4.77;;;;;;;;;;4936887;29;20418;-89
2023/05/13 11:16:13;;;;;;;4.80;4.13;;;;;;;;;;4936373;29;20469;-89
2023/05/13 11:18:38;;;;;;;13.07;5.60;;;;;;;;;;4938347;29;20413;-89
2023/05/13 11:21:05;;;;;;;9.27;5.30;;;;;;;;;;4952523;29;20501;-89
2023/05/13 11:23:50;;;;;;;6.50;3.83;;;;;;;;;;4937391;29;20758;-89
2023/05/13 11:26:16;;;;;;;7.70;5.00;;;;;;;;;;4938111;29;20413;-88
2023/05/13 11:28:58;;;;;;;6.27;4.70;;;;;;;;;;4952404;29;20520;-89
2023/05/13 11:31:26;;;;;;;5.10;4.60;;;;;;;;;;4937975;29;20410;-89
2023/05/13 11:34:10;;;;;;;9.23;5.20;;;;;;;;;;4937409;29;20418;-88
2023/05/13 11:36:41;;;;;;;5.60;5.10;;;;;;;;;;4937531;29;20468;-89
2023/05/13 11:39:14;;;;;;;5.63;5.03;;;;;;;;;;4952767;29;20429;-89
2023/05/13 11:41:42;;;;;;;5.00;4.13;;;;;;;;;;4937403;29;20401;-89
2023/05/13 11:44:09;;;;;;;4.93;4.30;;;;;;;;;;4937996;29;20417;-88
2023/05/13 11:46:35;;;;;;;6.63;4.73;;;;;;;;;;4938956;29;20429;-87
2023/05/13 11:49:01;;;;;;;4.50;4.17;;;;;;;;;;4936148;29;20420;-88
2023/05/13 11:51:27;;;;;;;6.60;5.00;;;;;;;;;;4950808;29;20467;-89
2023/05/13 11:54:03;;;;;;;8.73;4.90;;;;;;;;;;4956262;29;20406;-89
2023/05/13 11:56:29;;;;;;;7.23;5.83;;;;;;;;;;4956814;29;20472;-90
2023/05/13 11:58:56;;;;;;;6.30;2.97;;;;;;;;;;4958828;29;20756;-89
2023/05/13 12:01:22;;;;;;;5.83;4.00;;;;;;;;;;4959653;28;20447;-89
2023/05/13 12:03:48;;;;;;;16.67;7.33;;;;;;;;;;4959119;29;20419;-89
2023/05/13 12:06:14;;;;;;;2.80;2.13;;;;;;;;;;4959228;29;20914;-89
2023/05/13 12:08:44;;;;;;;2.90;2.43;;;;;;;;;;4958063;29;20388;-87
2023/05/13 12:11:12;;;;;;;34.97;12.63;;;;;;;;;;4958638;29;20481;-87
2023/05/13 12:13:38;;;;;;;6.53;3.60;;;;;;;;;;4958408;29;20421;-87
2023/05/13 12:19:08;;;;;;;5.00;2.80;;;;;;;;;;4958932;28;20391;-86
2023/05/13 12:21:34;;;;;;;13.20;4.70;;;;;;;;;;4958598;29;20413;-85
2023/05/13 12:24:00;;;;;;;3.13;2.70;;;;;;;;;;4958995;29;20412;-86
2023/05/13 12:26:26;;;;;;;11.13;4.03;;;;;;;;;;4958433;29;20743;-86
2023/05/13 12:29:01;;;;;;;14.33;6.30;;;;;;;;;;4958680;29;20409;-86
2023/05/13 12:31:27;;;;;;;3.53;2.67;;;;;;;;;;4960582;29;20391;-86
2023/05/13 12:33:53;;;;;;;2.83;2.60;;;;;;;;;;4944899;29;20383;-89
2023/05/13 12:36:34;;;;;;;2.97;2.70;;;;;;;;;;4941454;29;21058;-90
2023/05/13 12:39:04;;;;;;;3.60;2.47;;;;;;;;;;4959303;29;20434;-86
2023/05/13 12:41:34;;;;;;;4.97;3.67;;;;;;;;;;4957564;29;20375;-88
2023/05/13 12:44:19;;;;;;;3.00;2.20;;;;;;;;;;4957899;29;20437;-87
2023/05/13 12:46:51;;;;;;;3.40;2.30;;;;;;;;;;4958384;29;20374;-87
2023/05/13 12:49:17;;;;;;;2.97;2.67;;;;;;;;;;4958281;29;20403;-87
2023/05/13 12:51:43;;;;;;;3.93;2.20;;;;;;;;;;4956212;29;20476;-88
2023/05/13 12:54:12;;;;;;;2.77;2.47;;;;;;;;;;4958391;29;20395;-87
2023/05/13 12:56:41;;;;;;;4.27;2.40;;;;;;;;;;4958079;29;20431;-88
2023/05/13 12:59:07;;;;;;;3.50;2.30;;;;;;;;;;4957763;29;20408;-87
2023/05/13 13:01:33;;;;;;;2.27;2.07;;;;;;;;;;4958028;29;20424;-78
2023/05/13 13:03:59;;;;;;;6.70;2.70;;;;;;;;;;4959288;29;20589;-78
2023/05/13 13:06:25;;;;;;;2.30;2.10;;;;;;;;;;4959067;29;20456;-78
2023/05/13 13:08:51;;;;;;;2.60;2.40;;;;;;;;;;4959128;29;20932;-78
2023/05/13 13:11:17;;;;;;;3.53;2.33;;;;;;;;;;4958502;29;20468;-78
2023/05/13 13:13:44;;;;;;;2.60;2.30;;;;;;;;;;4957872;28;20478;-78
2023/05/13 13:16:10;;;;;;;4.30;2.40;;;;;;;;;;4958600;29;20518;-77
2023/05/13 13:18:36;;;;;;;2.73;2.10;;;;;;;;;;4958763;29;20383;-78
2023/05/13 13:21:04;;;;;;;2.20;2.03;;;;;;;;;;4958345;29;20463;-78
2023/05/13 13:23:30;;;;;;;2.97;2.60;;;;;;;;;;4958572;29;20391;-77
2023/05/13 13:25:58;;;;;;;3.30;2.50;;;;;;;;;;4958403;29;20478;-78
2023/05/13 13:28:24;;;;;;;2.67;2.47;;;;;;;;;;4958533;29;20479;-78
2023/05/13 13:30:50;;;;;;;2.27;2.07;;;;;;;;;;4957848;29;20405;-78
2023/05/13 13:33:16;;;;;;;2.90;2.50;;;;;;;;;;4958278;29;20470;-77
2023/05/13 13:35:46;;;;;;;3.67;2.20;;;;;;;;;;4957459;29;20416;-77
2023/05/13 13:38:12;;;;;;;3.67;2.70;;;;;;;;;;4958157;29;20412;-78
2023/05/13 13:40:38;;;;;;;3.33;2.90;;;;;;;;;;4957569;29;20405;-78
2023/05/13 13:43:05;;;;;;;3.97;2.60;;;;;;;;;;4956518;29;20412;-78
2023/05/13 13:45:31;;;;;;;3.90;3.10;;;;;;;;;;4957833;29;20409;-78
2023/05/13 13:47:57;;;;;;;2.77;2.57;;;;;;;;;;4958183;29;20823;-78
2023/05/13 13:50:23;;;;;;;3.73;2.13;;;;;;;;;;4957369;29;20468;-78
2023/05/13 13:52:52;;;;;;;3.67;2.37;;;;;;;;;;4957736;29;20419;-78
2023/05/13 13:55:21;;;;;;;2.23;2.00;;;;;;;;;;4957703;29;20436;-78
2023/05/13 13:57:48;;;;;;;4.00;2.20;;;;;;;;;;4956784;29;20559;-78
2023/05/13 14:00:14;;;;;;;4.80;2.20;;;;;;;;;;4957337;29;20413;-78
2023/05/13 14:02:41;;;;;;;2.30;2.10;;;;;;;;;;4948199;29;20416;-78
2023/05/13 14:05:07;;;;;;;3.87;2.57;;;;;;;;;;4946792;29;20408;-78
2023/05/13 14:07:33;;;;;;;3.50;2.77;;;;;;;;;;4947901;29;20405;-78
2023/05/13 14:09:59;;;;;;;2.43;2.23;;;;;;;;;;4947197;29;20884;-78
2023/05/13 14:12:25;;;;;;;2.73;2.00;;;;;;;;;;4946659;29;20413;-78
2023/05/13 14:14:51;;;;;;;2.57;2.37;;;;;;;;;;4940794;29;20391;-78
2023/05/13 14:17:17;;;;;;;6.13;2.23;;;;;;;;;;4943567;29;20817;-78
2023/05/13 14:19:43;;;;;;;2.47;2.00;;;;;;;;;;4956765;29;20392;-78
2023/05/13 14:22:09;;;;;;;4.73;2.37;;;;;;;;;;4957081;29;20423;-78
2023/05/13 14:24:35;;;;;;;4.10;2.30;;;;;;;;;;4956820;28;20397;-79
2023/05/13 14:27:01;;;;;;;2.07;1.87;;;;;;;;;;4956951;29;20388;-78
2023/05/13 14:29:27;;;;;;;2.30;2.10;;;;;;;;;;4957017;29;20551;-78